»·PEaware :: N448KM NONE-KMFR

N448KM :: NONE-KMFR

FLIGHT INFORMATION

Flight Status: Arrived
Operator: Privately registered:
United States
More flights under this callsign
Pilot: Jeb B. (17306)
Aircraft: MOONEY M-20K/M ENCORE BRAVO
(M20T)
More flights by this aircraft type
Origin: NONE
Destination: KMFR Rogue Valley Intl-Medford
United States
More flights between these airports :: More routes between these airports
Route: +
File this flight plan on PilotEdge
Remarks:
Altitude:
(Current/Filed)
0ft
Speed:
(Current/Filed)
0kts
Departed: 20-Oct-18 10:24 AM
Arrived: 20-Oct-18 11:14 AM
Distance/Time
Traveled:
Not Available
Distance/Time
To Go:
Arrived

Flight Plot

Page will automatically refresh every two minutes.

Flight plan parsing failed; only flown route is shown


Map Options




Map Legend


Flown Route
Filed Route
Departure Airport
Arrival Airport
Navaid (VOR, NDB)
Fix

Horizontal Profiles

Position Reports

Time Latitude Longitude Heading Altitude Ground
Speed
20-Oct-18 10:25 44.546246 -120.783336 214 9092ft 154kts
20-Oct-18 10:26 44.511752 -120.817989 213 10087ft 153kts
20-Oct-18 10:27 44.477676 -120.852206 213 11075ft 152kts
20-Oct-18 10:28 44.443334 -120.886648 212 12073ft 151kts
20-Oct-18 10:29 44.407956 -120.922129 213 12511ft 177kts
20-Oct-18 10:30 44.365363 -120.964719 213 12509ft 196kts
20-Oct-18 10:31 44.320559 -121.009423 213 12509ft 200kts
20-Oct-18 10:32 44.275533 -121.054275 213 12508ft 200kts
20-Oct-18 10:33 44.230295 -121.099247 213 12508ft 199kts
20-Oct-18 10:34 44.185280 -121.143908 213 12508ft 199kts
20-Oct-18 10:35 44.140376 -121.188376 213 12508ft 198kts
20-Oct-18 10:36 44.095629 -121.232603 213 12508ft 199kts
20-Oct-18 10:37 44.050701 -121.276925 213 12508ft 199kts
20-Oct-18 10:38 44.005995 -121.320963 214 12519ft 198kts
20-Oct-18 10:39 43.962996 -121.366777 209 12543ft 201kts
20-Oct-18 10:40 43.916619 -121.409121 213 12508ft 200kts
20-Oct-18 10:41 43.872488 -121.451956 213 12510ft 199kts
20-Oct-18 10:42 43.827522 -121.495856 213 12510ft 199kts
20-Oct-18 10:43 43.782393 -121.539874 213 12510ft 199kts
20-Oct-18 10:44 43.737274 -121.583803 213 12510ft 199kts
20-Oct-18 10:45 43.692034 -121.627766 213 12509ft 199kts
20-Oct-18 10:46 43.647319 -121.671140 212 12509ft 199kts
20-Oct-18 10:47 43.602134 -121.714886 212 12509ft 199kts
20-Oct-18 10:48 43.556907 -121.758592 212 12509ft 199kts
20-Oct-18 10:49 43.511933 -121.801970 212 12509ft 199kts
20-Oct-18 10:50 43.466680 -121.845538 212 12509ft 199kts
20-Oct-18 10:51 43.421398 -121.889053 212 12508ft 199kts
20-Oct-18 10:52 43.376191 -121.932415 212 12507ft 199kts
20-Oct-18 10:53 43.330981 -121.975699 212 12497ft 199kts
20-Oct-18 10:54 43.286352 -122.018348 212 12490ft 198kts
20-Oct-18 10:55 43.241272 -122.061348 212 12478ft 198kts
20-Oct-18 10:56 43.196565 -122.103914 212 12463ft 197kts
20-Oct-18 10:57 43.151760 -122.146498 212 12444ft 197kts
20-Oct-18 10:58 43.106985 -122.188976 212 12435ft 196kts
20-Oct-18 10:59 43.062182 -122.231400 212 12435ft 196kts
20-Oct-18 11:00 43.017530 -122.273617 212 12441ft 196kts
20-Oct-18 11:01 42.973453 -122.315205 211 12515ft 195kts
20-Oct-18 11:02 42.928986 -122.357091 210 12513ft 197kts
20-Oct-18 11:03 42.884893 -122.398547 210 12505ft 199kts
20-Oct-18 11:04 42.842124 -122.438738 209 12391ft 181kts
20-Oct-18 11:05 42.797464 -122.480522 210 11481ft 209kts
20-Oct-18 11:06 42.748824 -122.526087 211 10496ft 215kts
20-Oct-18 11:07 42.699580 -122.572058 212 9513ft 217kts
20-Oct-18 11:08 42.649775 -122.618457 212 8522ft 217kts
20-Oct-18 11:09 42.600564 -122.664212 212 7536ft 216kts
20-Oct-18 11:10 42.551389 -122.709842 213 6534ft 214kts
20-Oct-18 11:11 42.509176 -122.765333 231 5532ft 212kts
20-Oct-18 11:12 42.474387 -122.823925 231 4156ft 182kts
20-Oct-18 11:13 42.445184 -122.870827 223 2814ft 152kts
20-Oct-18 11:14 42.415934 -122.889091 185 1862ft 106kts
20-Oct-18 11:15 42.396112 -122.884352 158 1531ft 64kts
20-Oct-18 11:16 42.380934 -122.876413 181 1302ft 16kts
20-Oct-18 11:17 42.380075 -122.878613 249 1301ft 4kts
20-Oct-18 11:18 42.379742 -122.878780 69 1302ft 0kts
20-Oct-18 11:19 42.379742 -122.878779 69 1302ft 0kts
20-Oct-18 11:20 42.379742 -122.878779 69 1302ft 0kts
20-Oct-18 11:21 42.379742 -122.878779 69 1302ft 0kts
20-Oct-18 11:22 42.379742 -122.878779 69 1302ft 0kts
20-Oct-18 11:23 42.379742 -122.878779 69 1302ft 0kts
20-Oct-18 11:24 42.379742 -122.878779 69 1302ft 0kts
20-Oct-18 11:25 42.380788 -122.877935 338 1301ft 13kts
20-Oct-18 11:26 42.385575 -122.880399 6 1294ft 10kts
20-Oct-18 11:27 42.385793 -122.880208 55 1294ft 0kts
20-Oct-18 11:28 42.385989 -122.879523 73 1296ft 10kts
20-Oct-18 11:29 42.367988 -122.869484 160 1454ft 132kts
20-Oct-18 11:30 42.333417 -122.855388 166 2830ft 131kts
20-Oct-18 11:31 42.297191 -122.845148 167 4163ft 131kts

Navigation Log

Ident Type
Flight plan parsing failed, navigation log unavailable